sensor_id;sensor_type;location;lat;lon;timestamp;P1;durP1;ratioP1;P2;durP2;ratioP2
52458;SDS011;38372;52.902;6.024;2023-02-21T00:01:49;29.52;;;12.15;;
52458;SDS011;38372;52.902;6.024;2023-02-21T00:04:34;42.30;;;13.90;;
52458;SDS011;38372;52.902;6.024;2023-02-21T00:07:18;29.15;;;11.95;;
52458;SDS011;38372;52.902;6.024;2023-02-21T00:10:03;36.42;;;12.70;;
52458;SDS011;38372;52.902;6.024;2023-02-21T00:12:48;28.52;;;11.43;;
52458;SDS011;38372;52.902;6.024;2023-02-21T00:15:33;29.85;;;13.07;;
52458;SDS011;38372;52.902;6.024;2023-02-21T00:18:17;36.50;;;13.02;;
52458;SDS011;38372;52.902;6.024;2023-02-21T00:21:01;24.60;;;11.55;;
52458;SDS011;38372;52.902;6.024;2023-02-21T00:23:46;23.70;;;12.38;;
52458;SDS011;38372;52.902;6.024;2023-02-21T00:26:30;31.63;;;11.07;;
52458;SDS011;38372;52.902;6.024;2023-02-21T00:29:14;30.30;;;11.88;;
52458;SDS011;38372;52.902;6.024;2023-02-21T00:31:59;29.23;;;11.82;;
52458;SDS011;38372;52.902;6.024;2023-02-21T00:34:43;28.00;;;12.43;;
52458;SDS011;38372;52.902;6.024;2023-02-21T00:37:27;34.58;;;13.40;;
52458;SDS011;38372;52.902;6.024;2023-02-21T00:40:12;29.58;;;12.63;;
52458;SDS011;38372;52.902;6.024;2023-02-21T00:42:57;30.75;;;12.10;;
52458;SDS011;38372;52.902;6.024;2023-02-21T00:45:42;27.90;;;13.48;;
52458;SDS011;38372;52.902;6.024;2023-02-21T00:48:27;28.65;;;11.55;;
52458;SDS011;38372;52.902;6.024;2023-02-21T00:51:11;24.70;;;12.38;;
52458;SDS011;38372;52.902;6.024;2023-02-21T00:53:55;31.70;;;12.65;;
52458;SDS011;38372;52.902;6.024;2023-02-21T00:56:40;37.72;;;13.95;;
52458;SDS011;38372;52.902;6.024;2023-02-21T00:59:24;30.52;;;13.15;;
52458;SDS011;38372;52.902;6.024;2023-02-21T01:02:08;33.42;;;13.40;;
52458;SDS011;38372;52.902;6.024;2023-02-21T01:04:53;30.13;;;12.70;;
52458;SDS011;38372;52.902;6.024;2023-02-21T01:07:38;36.33;;;13.15;;
52458;SDS011;38372;52.902;6.024;2023-02-21T01:10:22;34.60;;;13.63;;
52458;SDS011;38372;52.902;6.024;2023-02-21T01:13:07;36.40;;;14.23;;
52458;SDS011;38372;52.902;6.024;2023-02-21T01:15:51;30.50;;;13.27;;
52458;SDS011;38372;52.902;6.024;2023-02-21T01:18:35;31.95;;;14.05;;
52458;SDS011;38372;52.902;6.024;2023-02-21T01:21:20;31.33;;;14.25;;
52458;SDS011;38372;52.902;6.024;2023-02-21T01:24:05;34.35;;;14.63;;
52458;SDS011;38372;52.902;6.024;2023-02-21T01:26:51;36.97;;;13.65;;
52458;SDS011;38372;52.902;6.024;2023-02-21T01:29:36;30.52;;;13.52;;
52458;SDS011;38372;52.902;6.024;2023-02-21T01:32:20;27.80;;;13.52;;
52458;SDS011;38372;52.902;6.024;2023-02-21T01:35:04;31.35;;;14.40;;
52458;SDS011;38372;52.902;6.024;2023-02-21T01:37:49;32.03;;;15.23;;
52458;SDS011;38372;52.902;6.024;2023-02-21T01:40:36;35.72;;;15.57;;
52458;SDS011;38372;52.902;6.024;2023-02-21T01:43:21;33.72;;;14.68;;
52458;SDS011;38372;52.902;6.024;2023-02-21T01:46:08;33.15;;;13.75;;
52458;SDS011;38372;52.902;6.024;2023-02-21T01:49:00;38.15;;;14.43;;
52458;SDS011;38372;52.902;6.024;2023-02-21T01:51:49;29.50;;;14.30;;
52458;SDS011;38372;52.902;6.024;2023-02-21T01:54:36;28.50;;;15.07;;
52458;SDS011;38372;52.902;6.024;2023-02-21T01:57:25;42.10;;;15.15;;
52458;SDS011;38372;52.902;6.024;2023-02-21T02:00:10;34.85;;;15.48;;
52458;SDS011;38372;52.902;6.024;2023-02-21T02:02:57;36.50;;;15.35;;
52458;SDS011;38372;52.902;6.024;2023-02-21T02:05:46;33.67;;;15.48;;
52458;SDS011;38372;52.902;6.024;2023-02-21T02:08:36;32.95;;;15.13;;
52458;SDS011;38372;52.902;6.024;2023-02-21T02:17:12;36.83;;;15.75;;
52458;SDS011;38372;52.902;6.024;2023-02-21T02:40:33;42.10;;;17.58;;
52458;SDS011;38372;52.902;6.024;2023-02-21T02:43:24;31.98;;;16.70;;
52458;SDS011;38372;52.902;6.024;2023-02-21T02:46:19;38.83;;;17.27;;
52458;SDS011;38372;52.902;6.024;2023-02-21T02:48:59;36.28;;;16.75;;
52458;SDS011;38372;52.902;6.024;2023-02-21T02:51:31;37.55;;;16.45;;
52458;SDS011;38372;52.902;6.024;2023-02-21T02:53:57;38.03;;;17.52;;
52458;SDS011;38372;52.902;6.024;2023-02-21T02:56:23;34.17;;;18.27;;
52458;SDS011;38372;52.902;6.024;2023-02-21T03:17:48;37.72;;;19.25;;
52458;SDS011;38372;52.902;6.024;2023-02-21T03:20:28;39.95;;;19.27;;
52458;SDS011;38372;52.902;6.024;2023-02-21T03:22:57;33.63;;;18.33;;
52458;SDS011;38372;52.902;6.024;2023-02-21T03:25:25;38.15;;;19.23;;
52458;SDS011;38372;52.902;6.024;2023-02-21T03:27:53;35.50;;;18.70;;
52458;SDS011;38372;52.902;6.024;2023-02-21T03:30:20;40.70;;;19.80;;
52458;SDS011;38372;52.902;6.024;2023-02-21T03:32:46;38.47;;;19.85;;
52458;SDS011;38372;52.902;6.024;2023-02-21T03:35:16;35.78;;;18.60;;
52458;SDS011;38372;52.902;6.024;2023-02-21T03:37:45;37.35;;;20.27;;
52458;SDS011;38372;52.902;6.024;2023-02-21T03:40:27;36.67;;;19.95;;
52458;SDS011;38372;52.902;6.024;2023-02-21T03:42:55;34.65;;;19.10;;
52458;SDS011;38372;52.902;6.024;2023-02-21T03:45:22;33.47;;;17.75;;
52458;SDS011;38372;52.902;6.024;2023-02-21T03:47:48;39.63;;;19.48;;
52458;SDS011;38372;52.902;6.024;2023-02-21T03:50:14;39.20;;;22.55;;
52458;SDS011;38372;52.902;6.024;2023-02-21T03:52:40;41.97;;;20.13;;
52458;SDS011;38372;52.902;6.024;2023-02-21T03:55:06;45.40;;;22.25;;
52458;SDS011;38372;52.902;6.024;2023-02-21T03:57:32;35.13;;;21.38;;
52458;SDS011;38372;52.902;6.024;2023-02-21T03:59:58;40.35;;;20.90;;
52458;SDS011;38372;52.902;6.024;2023-02-21T04:02:25;38.10;;;20.23;;
52458;SDS011;38372;52.902;6.024;2023-02-21T04:04:51;45.30;;;22.02;;
52458;SDS011;38372;52.902;6.024;2023-02-21T04:07:17;40.38;;;21.60;;
52458;SDS011;38372;52.902;6.024;2023-02-21T04:09:45;43.53;;;21.33;;
52458;SDS011;38372;52.902;6.024;2023-02-21T04:12:12;39.97;;;21.65;;
52458;SDS011;38372;52.902;6.024;2023-02-21T04:14:39;41.92;;;21.48;;
52458;SDS011;38372;52.902;6.024;2023-02-21T04:17:04;44.15;;;21.42;;
52458;SDS011;38372;52.902;6.024;2023-02-21T04:19:30;39.15;;;21.42;;
52458;SDS011;38372;52.902;6.024;2023-02-21T04:21:56;40.40;;;21.10;;
52458;SDS011;38372;52.902;6.024;2023-02-21T04:24:22;41.35;;;21.92;;
52458;SDS011;38372;52.902;6.024;2023-02-21T04:26:47;40.35;;;21.63;;
52458;SDS011;38372;52.902;6.024;2023-02-21T04:29:13;38.70;;;20.90;;
52458;SDS011;38372;52.902;6.024;2023-02-21T04:31:39;36.30;;;20.98;;
52458;SDS011;38372;52.902;6.024;2023-02-21T04:34:05;43.83;;;22.63;;
52458;SDS011;38372;52.902;6.024;2023-02-21T04:36:31;39.05;;;21.38;;
52458;SDS011;38372;52.902;6.024;2023-02-21T04:38:57;41.95;;;21.70;;
52458;SDS011;38372;52.902;6.024;2023-02-21T04:41:23;44.97;;;21.90;;
52458;SDS011;38372;52.902;6.024;2023-02-21T04:43:48;41.15;;;21.25;;
52458;SDS011;38372;52.902;6.024;2023-02-21T04:46:15;41.13;;;21.08;;
52458;SDS011;38372;52.902;6.024;2023-02-21T04:48:46;35.13;;;20.42;;
52458;SDS011;38372;52.902;6.024;2023-02-21T04:51:14;39.78;;;20.33;;
52458;SDS011;38372;52.902;6.024;2023-02-21T04:53:42;35.60;;;19.98;;
52458;SDS011;38372;52.902;6.024;2023-02-21T04:56:10;34.13;;;19.63;;
52458;SDS011;38372;52.902;6.024;2023-02-21T04:58:36;40.63;;;21.95;;
52458;SDS011;38372;52.902;6.024;2023-02-21T05:01:03;36.50;;;20.65;;
52458;SDS011;38372;52.902;6.024;2023-02-21T05:03:29;38.72;;;20.75;;
52458;SDS011;38372;52.902;6.024;2023-02-21T05:05:55;35.70;;;21.08;;
52458;SDS011;38372;52.902;6.024;2023-02-21T05:08:21;36.67;;;20.90;;
52458;SDS011;38372;52.902;6.024;2023-02-21T05:10:48;39.38;;;20.73;;
52458;SDS011;38372;52.902;6.024;2023-02-21T05:13:14;34.05;;;19.50;;
52458;SDS011;38372;52.902;6.024;2023-02-21T05:15:40;40.60;;;21.40;;
52458;SDS011;38372;52.902;6.024;2023-02-21T05:18:07;40.22;;;21.02;;
52458;SDS011;38372;52.902;6.024;2023-02-21T05:20:32;34.85;;;19.77;;
52458;SDS011;38372;52.902;6.024;2023-02-21T05:22:58;37.08;;;20.25;;
52458;SDS011;38372;52.902;6.024;2023-02-21T05:25:24;43.67;;;21.08;;
52458;SDS011;38372;52.902;6.024;2023-02-21T05:27:50;41.83;;;20.23;;
52458;SDS011;38372;52.902;6.024;2023-02-21T05:30:19;37.65;;;21.98;;
52458;SDS011;38372;52.902;6.024;2023-02-21T05:32:48;38.13;;;21.57;;
52458;SDS011;38372;52.902;6.024;2023-02-21T05:35:14;39.78;;;20.52;;
52458;SDS011;38372;52.902;6.024;2023-02-21T05:37:41;35.45;;;20.60;;
52458;SDS011;38372;52.902;6.024;2023-02-21T05:40:08;40.88;;;22.55;;
52458;SDS011;38372;52.902;6.024;2023-02-21T05:42:36;39.47;;;20.83;;
52458;SDS011;38372;52.902;6.024;2023-02-21T05:45:01;42.08;;;21.92;;
52458;SDS011;38372;52.902;6.024;2023-02-21T05:47:31;40.38;;;19.88;;
52458;SDS011;38372;52.902;6.024;2023-02-21T05:49:58;35.10;;;19.63;;
52458;SDS011;38372;52.902;6.024;2023-02-21T05:52:24;36.95;;;21.67;;
52458;SDS011;38372;52.902;6.024;2023-02-21T05:54:50;35.20;;;20.83;;
52458;SDS011;38372;52.902;6.024;2023-02-21T05:57:16;41.65;;;21.83;;
52458;SDS011;38372;52.902;6.024;2023-02-21T05:59:43;34.63;;;20.88;;
52458;SDS011;38372;52.902;6.024;2023-02-21T06:02:12;44.75;;;22.48;;
52458;SDS011;38372;52.902;6.024;2023-02-21T06:04:38;38.85;;;22.30;;
52458;SDS011;38372;52.902;6.024;2023-02-21T06:07:04;37.47;;;21.20;;
52458;SDS011;38372;52.902;6.024;2023-02-21T06:09:30;38.97;;;20.63;;
52458;SDS011;38372;52.902;6.024;2023-02-21T06:11:56;43.50;;;21.88;;
52458;SDS011;38372;52.902;6.024;2023-02-21T06:14:22;37.88;;;21.40;;
52458;SDS011;38372;52.902;6.024;2023-02-21T06:16:48;36.65;;;18.98;;
52458;SDS011;38372;52.902;6.024;2023-02-21T06:19:14;40.13;;;21.48;;
52458;SDS011;38372;52.902;6.024;2023-02-21T06:21:41;37.72;;;21.75;;
52458;SDS011;38372;52.902;6.024;2023-02-21T06:24:07;35.35;;;21.08;;
52458;SDS011;38372;52.902;6.024;2023-02-21T06:26:33;38.30;;;22.50;;
52458;SDS011;38372;52.902;6.024;2023-02-21T06:28:59;42.17;;;22.48;;
52458;SDS011;38372;52.902;6.024;2023-02-21T06:31:25;41.22;;;22.98;;
52458;SDS011;38372;52.902;6.024;2023-02-21T06:33:51;39.00;;;21.55;;
52458;SDS011;38372;52.902;6.024;2023-02-21T06:36:18;41.75;;;23.17;;
52458;SDS011;38372;52.902;6.024;2023-02-21T06:38:46;40.30;;;22.50;;
52458;SDS011;38372;52.902;6.024;2023-02-21T06:41:15;33.75;;;17.77;;
52458;SDS011;38372;52.902;6.024;2023-02-21T06:43:50;42.10;;;22.63;;
52458;SDS011;38372;52.902;6.024;2023-02-21T06:46:20;36.03;;;21.67;;
52458;SDS011;38372;52.902;6.024;2023-02-21T06:48:48;38.90;;;23.05;;
52458;SDS011;38372;52.902;6.024;2023-02-21T06:51:14;35.40;;;21.95;;
52458;SDS011;38372;52.902;6.024;2023-02-21T06:53:41;38.00;;;21.52;;
52458;SDS011;38372;52.902;6.024;2023-02-21T06:56:07;41.80;;;22.33;;
52458;SDS011;38372;52.902;6.024;2023-02-21T06:58:33;38.10;;;22.88;;
52458;SDS011;38372;52.902;6.024;2023-02-21T07:01:00;40.67;;;21.55;;
52458;SDS011;38372;52.902;6.024;2023-02-21T07:03:26;41.03;;;21.98;;
52458;SDS011;38372;52.902;6.024;2023-02-21T07:05:52;34.78;;;20.55;;
52458;SDS011;38372;52.902;6.024;2023-02-21T07:08:18;37.80;;;22.70;;
52458;SDS011;38372;52.902;6.024;2023-02-21T07:10:44;38.20;;;22.40;;
52458;SDS011;38372;52.902;6.024;2023-02-21T07:13:09;33.78;;;20.38;;
52458;SDS011;38372;52.902;6.024;2023-02-21T07:15:35;37.35;;;21.67;;
52458;SDS011;38372;52.902;6.024;2023-02-21T07:18:01;38.88;;;22.25;;
52458;SDS011;38372;52.902;6.024;2023-02-21T07:20:27;35.55;;;20.98;;
52458;SDS011;38372;52.902;6.024;2023-02-21T07:22:53;34.67;;;21.52;;
52458;SDS011;38372;52.902;6.024;2023-02-21T07:25:19;34.30;;;20.88;;
52458;SDS011;38372;52.902;6.024;2023-02-21T07:27:47;33.08;;;19.55;;
52458;SDS011;38372;52.902;6.024;2023-02-21T07:30:13;32.10;;;19.55;;
52458;SDS011;38372;52.902;6.024;2023-02-21T07:32:40;41.63;;;21.10;;
52458;SDS011;38372;52.902;6.024;2023-02-21T07:35:06;32.08;;;20.08;;
52458;SDS011;38372;52.902;6.024;2023-02-21T07:37:32;32.38;;;19.27;;
52458;SDS011;38372;52.902;6.024;2023-02-21T07:39:58;31.55;;;20.25;;
52458;SDS011;38372;52.902;6.024;2023-02-21T07:42:24;34.58;;;20.13;;
52458;SDS011;38372;52.902;6.024;2023-02-21T07:44:56;39.33;;;21.77;;
52458;SDS011;38372;52.902;6.024;2023-02-21T07:47:25;36.00;;;20.92;;
52458;SDS011;38372;52.902;6.024;2023-02-21T07:49:52;39.63;;;21.80;;
52458;SDS011;38372;52.902;6.024;2023-02-21T07:52:18;44.67;;;21.67;;
52458;SDS011;38372;52.902;6.024;2023-02-21T07:54:45;35.00;;;21.55;;
52458;SDS011;38372;52.902;6.024;2023-02-21T07:57:13;40.45;;;23.27;;
52458;SDS011;38372;52.902;6.024;2023-02-21T07:59:42;36.15;;;21.48;;
52458;SDS011;38372;52.902;6.024;2023-02-21T08:02:08;39.33;;;23.10;;
52458;SDS011;38372;52.902;6.024;2023-02-21T08:04:36;42.47;;;24.35;;
52458;SDS011;38372;52.902;6.024;2023-02-21T08:07:03;39.92;;;22.67;;
52458;SDS011;38372;52.902;6.024;2023-02-21T08:09:29;41.05;;;22.50;;
52458;SDS011;38372;52.902;6.024;2023-02-21T08:11:55;42.80;;;22.58;;
52458;SDS011;38372;52.902;6.024;2023-02-21T08:14:21;38.55;;;21.30;;
52458;SDS011;38372;52.902;6.024;2023-02-21T08:16:46;40.97;;;22.38;;
52458;SDS011;38372;52.902;6.024;2023-02-21T08:19:12;39.05;;;23.50;;
52458;SDS011;38372;52.902;6.024;2023-02-21T08:21:38;37.53;;;21.63;;
52458;SDS011;38372;52.902;6.024;2023-02-21T08:24:10;42.97;;;22.33;;
52458;SDS011;38372;52.902;6.024;2023-02-21T08:26:36;41.85;;;21.88;;
52458;SDS011;38372;52.902;6.024;2023-02-21T08:29:04;39.65;;;21.90;;
52458;SDS011;38372;52.902;6.024;2023-02-21T08:31:34;39.08;;;20.95;;
52458;SDS011;38372;52.902;6.024;2023-02-21T08:34:01;40.72;;;22.27;;
52458;SDS011;38372;52.902;6.024;2023-02-21T08:36:36;35.78;;;21.13;;
52458;SDS011;38372;52.902;6.024;2023-02-21T08:39:03;37.17;;;21.35;;
52458;SDS011;38372;52.902;6.024;2023-02-21T08:41:42;40.13;;;21.40;;
52458;SDS011;38372;52.902;6.024;2023-02-21T08:46:37;41.80;;;24.77;;
52458;SDS011;38372;52.902;6.024;2023-02-21T08:49:05;36.63;;;21.50;;
52458;SDS011;38372;52.902;6.024;2023-02-21T08:51:32;39.67;;;22.67;;
52458;SDS011;38372;52.902;6.024;2023-02-21T08:53:58;34.53;;;20.98;;
52458;SDS011;38372;52.902;6.024;2023-02-21T08:56:24;37.58;;;21.45;;
52458;SDS011;38372;52.902;6.024;2023-02-21T08:58:50;38.25;;;21.98;;
52458;SDS011;38372;52.902;6.024;2023-02-21T09:01:18;36.58;;;21.45;;
52458;SDS011;38372;52.902;6.024;2023-02-21T09:03:44;39.30;;;21.75;;
52458;SDS011;38372;52.902;6.024;2023-02-21T09:06:10;32.55;;;20.58;;
52458;SDS011;38372;52.902;6.024;2023-02-21T09:08:37;35.35;;;20.23;;
52458;SDS011;38372;52.902;6.024;2023-02-21T09:11:04;34.58;;;20.42;;
52458;SDS011;38372;52.902;6.024;2023-02-21T09:13:31;35.25;;;21.27;;
52458;SDS011;38372;52.902;6.024;2023-02-21T09:15:58;31.65;;;20.73;;
52458;SDS011;38372;52.902;6.024;2023-02-21T09:18:24;33.50;;;19.38;;
52458;SDS011;38372;52.902;6.024;2023-02-21T09:20:51;35.80;;;20.73;;
52458;SDS011;38372;52.902;6.024;2023-02-21T09:23:18;35.05;;;19.98;;
52458;SDS011;38372;52.902;6.024;2023-02-21T09:25:45;33.85;;;19.70;;
52458;SDS011;38372;52.902;6.024;2023-02-21T09:28:12;33.28;;;19.27;;
52458;SDS011;38372;52.902;6.024;2023-02-21T09:30:38;32.47;;;19.23;;
52458;SDS011;38372;52.902;6.024;2023-02-21T09:33:04;27.58;;;19.52;;
52458;SDS011;38372;52.902;6.024;2023-02-21T09:35:29;31.15;;;20.63;;
52458;SDS011;38372;52.902;6.024;2023-02-21T09:37:56;34.65;;;21.13;;
52458;SDS011;38372;52.902;6.024;2023-02-21T09:40:26;33.88;;;20.85;;
52458;SDS011;38372;52.902;6.024;2023-02-21T09:45:31;32.10;;;21.05;;
52458;SDS011;38372;52.902;6.024;2023-02-21T09:48:00;35.53;;;21.40;;
52458;SDS011;38372;52.902;6.024;2023-02-21T09:50:32;33.95;;;20.73;;
52458;SDS011;38372;52.902;6.024;2023-02-21T09:53:02;34.00;;;20.20;;
52458;SDS011;38372;52.902;6.024;2023-02-21T09:57:56;33.88;;;20.33;;
52458;SDS011;38372;52.902;6.024;2023-02-21T10:00:28;32.65;;;20.63;;
52458;SDS011;38372;52.902;6.024;2023-02-21T10:08:59;33.72;;;20.75;;
52458;SDS011;38372;52.902;6.024;2023-02-21T10:20:12;36.28;;;20.48;;
52458;SDS011;38372;52.902;6.024;2023-02-21T10:22:59;38.00;;;20.35;;
52458;SDS011;38372;52.902;6.024;2023-02-21T10:25:29;30.40;;;18.58;;
52458;SDS011;38372;52.902;6.024;2023-02-21T10:27:57;36.38;;;21.23;;
52458;SDS011;38372;52.902;6.024;2023-02-21T10:30:36;31.83;;;20.13;;
52458;SDS011;38372;52.902;6.024;2023-02-21T10:33:04;35.25;;;20.70;;
52458;SDS011;38372;52.902;6.024;2023-02-21T10:35:34;35.42;;;21.88;;
52458;SDS011;38372;52.902;6.024;2023-02-21T10:38:14;38.45;;;24.15;;
52458;SDS011;38372;52.902;6.024;2023-02-21T10:40:47;37.35;;;21.30;;
52458;SDS011;38372;52.902;6.024;2023-02-21T10:45:56;36.45;;;20.30;;
52458;SDS011;38372;52.902;6.024;2023-02-21T10:51:09;33.15;;;20.90;;
52458;SDS011;38372;52.902;6.024;2023-02-21T10:53:43;34.78;;;22.52;;
52458;SDS011;38372;52.902;6.024;2023-02-21T10:58:49;33.05;;;21.95;;
52458;SDS011;38372;52.902;6.024;2023-02-21T11:01:40;34.05;;;20.42;;
52458;SDS011;38372;52.902;6.024;2023-02-21T11:06:50;31.70;;;19.75;;
52458;SDS011;38372;52.902;6.024;2023-02-21T11:09:27;31.08;;;22.63;;
52458;SDS011;38372;52.902;6.024;2023-02-21T11:12:01;36.20;;;24.63;;
52458;SDS011;38372;52.902;6.024;2023-02-21T11:14:29;31.10;;;21.02;;
52458;SDS011;38372;52.902;6.024;2023-02-21T11:19:45;31.23;;;19.63;;
52458;SDS011;38372;52.902;6.024;2023-02-21T11:22:17;35.85;;;20.33;;
52458;SDS011;38372;52.902;6.024;2023-02-21T11:28:17;28.73;;;20.70;;
52458;SDS011;38372;52.902;6.024;2023-02-21T11:33:28;32.88;;;22.75;;
52458;SDS011;38372;52.902;6.024;2023-02-21T11:38:41;30.40;;;21.63;;
52458;SDS011;38372;52.902;6.024;2023-02-21T11:41:57;30.25;;;20.48;;
52458;SDS011;38372;52.902;6.024;2023-02-21T11:44:35;34.78;;;23.33;;
52458;SDS011;38372;52.902;6.024;2023-02-21T11:52:39;32.65;;;21.20;;
52458;SDS011;38372;52.902;6.024;2023-02-21T11:55:21;33.63;;;21.35;;
52458;SDS011;38372;52.902;6.024;2023-02-21T12:06:17;36.63;;;25.60;;
52458;SDS011;38372;52.902;6.024;2023-02-21T12:09:06;34.63;;;20.88;;
52458;SDS011;38372;52.902;6.024;2023-02-21T12:28:34;39.25;;;22.13;;
52458;SDS011;38372;52.902;6.024;2023-02-21T12:31:07;37.30;;;23.00;;
52458;SDS011;38372;52.902;6.024;2023-02-21T12:34:02;40.80;;;24.25;;
52458;SDS011;38372;52.902;6.024;2023-02-21T12:39:35;41.85;;;25.42;;
52458;SDS011;38372;52.902;6.024;2023-02-21T12:50:45;45.13;;;26.45;;
52458;SDS011;38372;52.902;6.024;2023-02-21T12:53:33;46.80;;;28.05;;
52458;SDS011;38372;52.902;6.024;2023-02-21T13:01:23;48.72;;;25.58;;
52458;SDS011;38372;52.902;6.024;2023-02-21T13:09:47;44.28;;;27.38;;
52458;SDS011;38372;52.902;6.024;2023-02-21T13:12:16;42.70;;;25.45;;
52458;SDS011;38372;52.902;6.024;2023-02-21T13:14:55;50.90;;;27.67;;
52458;SDS011;38372;52.902;6.024;2023-02-21T13:17:25;44.20;;;26.42;;
52458;SDS011;38372;52.902;6.024;2023-02-21T13:19:57;47.47;;;27.63;;
52458;SDS011;38372;52.902;6.024;2023-02-21T13:33:00;44.67;;;26.98;;
52458;SDS011;38372;52.902;6.024;2023-02-21T13:35:36;48.40;;;28.00;;
52458;SDS011;38372;52.902;6.024;2023-02-21T13:38:04;46.80;;;27.67;;
52458;SDS011;38372;52.902;6.024;2023-02-21T13:45:31;48.20;;;27.55;;
52458;SDS011;38372;52.902;6.024;2023-02-21T13:58:32;43.45;;;26.10;;
52458;SDS011;38372;52.902;6.024;2023-02-21T14:01:19;46.38;;;24.17;;
52458;SDS011;38372;52.902;6.024;2023-02-21T14:03:48;44.28;;;26.67;;
52458;SDS011;38372;52.902;6.024;2023-02-21T14:08:52;37.67;;;23.83;;
52458;SDS011;38372;52.902;6.024;2023-02-21T14:11:23;43.13;;;25.67;;
52458;SDS011;38372;52.902;6.024;2023-02-21T14:16:47;40.70;;;25.00;;
52458;SDS011;38372;52.902;6.024;2023-02-21T14:19:24;39.65;;;24.23;;
52458;SDS011;38372;52.902;6.024;2023-02-21T14:21:59;40.13;;;25.13;;
52458;SDS011;38372;52.902;6.024;2023-02-21T14:24:37;44.63;;;27.20;;
52458;SDS011;38372;52.902;6.024;2023-02-21T14:29:41;41.50;;;25.17;;
52458;SDS011;38372;52.902;6.024;2023-02-21T14:37:15;49.83;;;26.40;;
52458;SDS011;38372;52.902;6.024;2023-02-21T14:39:57;38.80;;;23.20;;
52458;SDS011;38372;52.902;6.024;2023-02-21T14:48:30;39.05;;;23.45;;
52458;SDS011;38372;52.902;6.024;2023-02-21T15:01:48;35.97;;;21.80;;
52458;SDS011;38372;52.902;6.024;2023-02-21T15:07:01;34.20;;;21.73;;
52458;SDS011;38372;52.902;6.024;2023-02-21T15:09:35;39.50;;;24.42;;
52458;SDS011;38372;52.902;6.024;2023-02-21T15:12:01;32.97;;;21.73;;
52458;SDS011;38372;52.902;6.024;2023-02-21T15:14:35;34.80;;;21.00;;
52458;SDS011;38372;52.902;6.024;2023-02-21T15:17:12;37.78;;;22.35;;
52458;SDS011;38372;52.902;6.024;2023-02-21T15:19:43;34.35;;;20.88;;
52458;SDS011;38372;52.902;6.024;2023-02-21T15:22:25;34.75;;;21.92;;
52458;SDS011;38372;52.902;6.024;2023-02-21T15:24:56;35.53;;;20.70;;
52458;SDS011;38372;52.902;6.024;2023-02-21T15:27:36;31.20;;;20.85;;
52458;SDS011;38372;52.902;6.024;2023-02-21T15:30:16;39.47;;;22.42;;
52458;SDS011;38372;52.902;6.024;2023-02-21T15:32:42;34.47;;;21.92;;
52458;SDS011;38372;52.902;6.024;2023-02-21T15:35:11;34.05;;;22.25;;
52458;SDS011;38372;52.902;6.024;2023-02-21T15:37:44;34.97;;;21.63;;
52458;SDS011;38372;52.902;6.024;2023-02-21T15:40:15;40.38;;;22.75;;
52458;SDS011;38372;52.902;6.024;2023-02-21T15:42:45;36.85;;;23.75;;
52458;SDS011;38372;52.902;6.024;2023-02-21T15:45:18;41.83;;;24.20;;
52458;SDS011;38372;52.902;6.024;2023-02-21T15:47:54;36.17;;;22.20;;
52458;SDS011;38372;52.902;6.024;2023-02-21T15:52:52;41.15;;;23.70;;
52458;SDS011;38372;52.902;6.024;2023-02-21T16:00:39;43.17;;;23.63;;
52458;SDS011;38372;52.902;6.024;2023-02-21T16:06:08;38.25;;;24.27;;
52458;SDS011;38372;52.902;6.024;2023-02-21T16:11:45;41.22;;;24.73;;
52458;SDS011;38372;52.902;6.024;2023-02-21T16:17:06;45.03;;;26.02;;
52458;SDS011;38372;52.902;6.024;2023-02-21T16:19:44;50.42;;;26.95;;
52458;SDS011;38372;52.902;6.024;2023-02-21T16:22:24;48.25;;;27.98;;
52458;SDS011;38372;52.902;6.024;2023-02-21T16:27:37;56.80;;;29.85;;
52458;SDS011;38372;52.902;6.024;2023-02-21T16:30:05;59.20;;;31.35;;
52458;SDS011;38372;52.902;6.024;2023-02-21T16:32:32;66.13;;;36.92;;
52458;SDS011;38372;52.902;6.024;2023-02-21T16:34:59;61.38;;;37.53;;
52458;SDS011;38372;52.902;6.024;2023-02-21T16:37:25;58.50;;;35.63;;
52458;SDS011;38372;52.902;6.024;2023-02-21T16:39:52;52.00;;;29.33;;
52458;SDS011;38372;52.902;6.024;2023-02-21T16:42:18;55.25;;;34.47;;
52458;SDS011;38372;52.902;6.024;2023-02-21T16:44:44;53.40;;;31.65;;
52458;SDS011;38372;52.902;6.024;2023-02-21T16:47:13;56.65;;;33.47;;
52458;SDS011;38372;52.902;6.024;2023-02-21T16:49:40;54.13;;;30.92;;
52458;SDS011;38372;52.902;6.024;2023-02-21T16:52:10;66.38;;;36.03;;
52458;SDS011;38372;52.902;6.024;2023-02-21T16:54:40;58.10;;;30.60;;
52458;SDS011;38372;52.902;6.024;2023-02-21T16:57:06;61.60;;;35.45;;
52458;SDS011;38372;52.902;6.024;2023-02-21T16:59:32;61.22;;;31.88;;
52458;SDS011;38372;52.902;6.024;2023-02-21T17:01:58;53.22;;;30.83;;
52458;SDS011;38372;52.902;6.024;2023-02-21T17:04:25;56.35;;;31.80;;
52458;SDS011;38372;52.902;6.024;2023-02-21T17:06:55;60.70;;;32.33;;
52458;SDS011;38372;52.902;6.024;2023-02-21T17:09:25;60.70;;;32.67;;
52458;SDS011;38372;52.902;6.024;2023-02-21T17:11:52;56.22;;;30.55;;
52458;SDS011;38372;52.902;6.024;2023-02-21T17:14:19;61.42;;;32.85;;
52458;SDS011;38372;52.902;6.024;2023-02-21T17:16:45;63.90;;;35.30;;
52458;SDS011;38372;52.902;6.024;2023-02-21T17:19:16;66.70;;;34.92;;
52458;SDS011;38372;52.902;6.024;2023-02-21T17:21:43;68.70;;;35.25;;
52458;SDS011;38372;52.902;6.024;2023-02-21T17:24:10;64.22;;;36.85;;
52458;SDS011;38372;52.902;6.024;2023-02-21T17:26:37;61.97;;;34.80;;
52458;SDS011;38372;52.902;6.024;2023-02-21T17:29:03;57.00;;;32.65;;
52458;SDS011;38372;52.902;6.024;2023-02-21T17:31:30;71.75;;;35.20;;
52458;SDS011;38372;52.902;6.024;2023-02-21T17:33:55;56.22;;;30.30;;
52458;SDS011;38372;52.902;6.024;2023-02-21T17:36:23;65.63;;;33.15;;
52458;SDS011;38372;52.902;6.024;2023-02-21T17:38:50;60.13;;;31.05;;
52458;SDS011;38372;52.902;6.024;2023-02-21T17:41:15;60.47;;;31.95;;
52458;SDS011;38372;52.902;6.024;2023-02-21T17:43:41;57.25;;;30.27;;
52458;SDS011;38372;52.902;6.024;2023-02-21T17:46:14;60.00;;;31.83;;
52458;SDS011;38372;52.902;6.024;2023-02-21T17:48:41;57.72;;;29.67;;
52458;SDS011;38372;52.902;6.024;2023-02-21T17:51:08;65.55;;;37.45;;
52458;SDS011;38372;52.902;6.024;2023-02-21T17:53:40;54.88;;;30.40;;
52458;SDS011;38372;52.902;6.024;2023-02-21T17:56:06;50.25;;;27.45;;
52458;SDS011;38372;52.902;6.024;2023-02-21T17:58:32;58.80;;;30.40;;
52458;SDS011;38372;52.902;6.024;2023-02-21T18:00:57;56.15;;;31.40;;
52458;SDS011;38372;52.902;6.024;2023-02-21T18:03:23;49.75;;;26.17;;
52458;SDS011;38372;52.902;6.024;2023-02-21T18:05:50;52.10;;;27.25;;
52458;SDS011;38372;52.902;6.024;2023-02-21T18:08:16;61.17;;;29.40;;
52458;SDS011;38372;52.902;6.024;2023-02-21T18:10:43;59.72;;;29.20;;
52458;SDS011;38372;52.902;6.024;2023-02-21T18:13:14;60.28;;;28.73;;
52458;SDS011;38372;52.902;6.024;2023-02-21T18:15:44;52.92;;;27.60;;
52458;SDS011;38372;52.902;6.024;2023-02-21T18:18:10;51.38;;;27.83;;
52458;SDS011;38372;52.902;6.024;2023-02-21T18:20:36;53.75;;;29.08;;
52458;SDS011;38372;52.902;6.024;2023-02-21T18:23:03;54.42;;;28.55;;
52458;SDS011;38372;52.902;6.024;2023-02-21T18:25:31;52.45;;;27.52;;
52458;SDS011;38372;52.902;6.024;2023-02-21T18:27:57;74.30;;;34.22;;